createdAt,value
2023-05-04T00:01:03.961Z,23.90
2023-05-04T00:03:31.802Z,23.90
2023-05-04T00:05:59.650Z,23.90
2023-05-04T00:08:28.701Z,23.90
2023-05-04T00:10:57.504Z,23.90
2023-05-04T00:13:25.308Z,23.90
2023-05-04T00:15:53.070Z,23.90
2023-05-04T00:18:21.376Z,23.90
2023-05-04T00:20:49.074Z,23.90
2023-05-04T00:23:16.751Z,23.90
2023-05-04T00:25:45.801Z,23.90
2023-05-04T00:28:13.850Z,23.90
2023-05-04T00:30:41.909Z,23.90
2023-05-04T00:33:09.757Z,23.90
2023-05-04T00:35:37.602Z,23.90
2023-05-04T00:38:05.483Z,23.90
2023-05-04T00:40:35.000Z,23.90
2023-05-04T00:43:04.066Z,23.90
2023-05-04T00:45:31.925Z,23.90
2023-05-04T00:47:59.876Z,23.90
2023-05-04T00:50:29.593Z,23.90
2023-05-04T00:53:00.572Z,23.90
2023-05-04T00:55:28.565Z,23.90
2023-05-04T00:57:56.494Z,23.90
2023-05-04T01:00:25.702Z,23.90
2023-05-04T01:02:53.527Z,23.90
2023-05-04T01:05:23.672Z,23.90
2023-05-04T01:07:58.883Z,23.90
2023-05-04T01:10:35.231Z,23.90
2023-05-04T01:13:08.396Z,23.90
2023-05-04T01:15:38.020Z,23.90
2023-05-04T01:18:05.869Z,23.80
2023-05-04T01:20:34.684Z,23.80
2023-05-04T01:23:04.878Z,23.80
2023-05-04T01:25:36.776Z,23.80
2023-05-04T01:28:11.251Z,23.80
2023-05-04T01:30:41.679Z,23.80
2023-05-04T01:33:10.627Z,23.80
2023-05-04T01:35:38.616Z,23.80
2023-05-04T01:38:07.735Z,23.80
2023-05-04T01:40:35.494Z,23.80
2023-05-04T01:43:03.193Z,23.80
2023-05-04T01:45:31.140Z,23.80
2023-05-04T01:47:59.007Z,23.80
2023-05-04T01:50:26.922Z,23.80
2023-05-04T01:52:54.794Z,23.80
2023-05-04T01:55:23.834Z,23.80
2023-05-04T01:57:51.522Z,23.80
2023-05-04T02:00:20.082Z,23.80
2023-05-04T02:02:48.134Z,23.80
2023-05-04T02:05:19.524Z,23.80
2023-05-04T02:07:47.344Z,23.80
2023-05-04T02:10:15.262Z,23.80
2023-05-04T02:12:44.318Z,23.80
2023-05-04T02:15:12.593Z,23.80
2023-05-04T02:17:40.305Z,23.80
2023-05-04T02:20:09.760Z,23.80
2023-05-04T02:22:37.559Z,23.80
2023-05-04T02:25:06.171Z,23.80
2023-05-04T02:27:33.916Z,23.80
2023-05-04T02:30:04.606Z,23.80
2023-05-04T02:32:32.613Z,23.80
2023-05-04T02:35:00.546Z,23.80
2023-05-04T02:37:29.808Z,23.80
2023-05-04T02:39:57.500Z,23.80
2023-05-04T02:42:25.865Z,23.80
2023-05-04T02:44:53.532Z,23.80
2023-05-04T02:47:22.593Z,23.80
2023-05-04T02:49:50.815Z,23.80
2023-05-04T02:52:18.656Z,23.80
2023-05-04T02:54:47.324Z,23.80
2023-05-04T02:57:15.050Z,23.80
2023-05-04T02:59:42.780Z,23.80
2023-05-04T03:02:11.313Z,23.80
2023-05-04T03:04:40.451Z,23.80
2023-05-04T03:07:09.981Z,23.80
2023-05-04T03:09:37.691Z,23.80
2023-05-04T03:12:05.926Z,23.80
2023-05-04T03:14:33.635Z,23.80
2023-05-04T03:17:01.484Z,23.80
2023-05-04T03:19:29.258Z,23.80
2023-05-04T03:21:58.851Z,23.80
2023-05-04T03:24:26.682Z,23.80
2023-05-04T03:26:54.645Z,23.80
2023-05-04T03:29:23.250Z,23.80
2023-05-04T03:31:51.397Z,23.80
2023-05-04T03:34:21.345Z,23.80
2023-05-04T03:36:51.217Z,23.80
2023-05-04T03:39:20.397Z,23.80
2023-05-04T03:41:49.436Z,23.80
2023-05-04T03:44:17.127Z,23.80
2023-05-04T03:46:45.421Z,23.80
2023-05-04T03:49:13.359Z,23.70
2023-05-04T03:51:41.203Z,23.80
2023-05-04T03:54:09.299Z,23.70
2023-05-04T03:56:38.345Z,23.80
2023-05-04T03:59:06.172Z,23.70
2023-05-04T04:01:35.107Z,23.70
2023-05-04T04:04:04.062Z,23.80
2023-05-04T04:06:32.011Z,23.70
2023-05-04T04:08:59.721Z,23.70
2023-05-04T04:11:27.576Z,23.70
2023-05-04T04:13:56.834Z,23.70
2023-05-04T04:16:24.920Z,23.70
2023-05-04T04:18:52.638Z,23.70
2023-05-04T04:21:20.545Z,23.70
2023-05-04T04:23:48.603Z,23.70
2023-05-04T04:26:16.515Z,23.70
2023-05-04T04:28:50.250Z,23.70
2023-05-04T04:31:20.161Z,23.70
2023-05-04T04:33:48.215Z,23.70
2023-05-04T04:36:16.622Z,23.70
2023-05-04T04:38:44.613Z,23.70
2023-05-04T04:41:12.404Z,23.70
2023-05-04T04:43:40.619Z,23.70
2023-05-04T04:46:08.315Z,23.70
2023-05-04T04:48:37.671Z,23.70
2023-05-04T04:51:10.296Z,23.70
2023-05-04T04:53:37.984Z,23.70
2023-05-04T04:56:07.228Z,23.70
2023-05-04T04:58:35.360Z,23.70
2023-05-04T05:01:04.125Z,23.70
2023-05-04T05:03:31.910Z,23.70
2023-05-04T05:06:02.540Z,23.70
2023-05-04T05:08:30.251Z,23.70
2023-05-04T05:10:57.950Z,23.70
2023-05-04T05:13:25.724Z,23.70
2023-05-04T05:15:53.452Z,23.70
2023-05-04T05:18:21.404Z,23.70
2023-05-04T05:20:49.402Z,23.70
2023-05-04T05:23:18.421Z,23.70
2023-05-04T05:25:46.211Z,23.70
2023-05-04T05:28:14.642Z,23.70
2023-05-04T05:30:42.835Z,23.70
2023-05-04T05:33:11.058Z,23.70
2023-05-04T05:35:38.832Z,23.70
2023-05-04T05:38:06.526Z,23.70
2023-05-04T05:40:35.588Z,23.70
2023-05-04T05:43:04.110Z,23.80
2023-05-04T05:45:31.868Z,23.80
2023-05-04T05:47:59.664Z,23.80
2023-05-04T05:50:27.602Z,23.80
2023-05-04T05:52:55.406Z,23.80
2023-05-04T05:55:23.166Z,23.80
2023-05-04T05:57:52.186Z,23.80
2023-05-04T06:00:20.457Z,23.80
2023-05-04T06:02:48.340Z,23.80
2023-05-04T06:05:16.290Z,23.80
2023-05-04T06:07:44.007Z,23.80
2023-05-04T06:10:11.997Z,23.80
2023-05-04T06:12:39.774Z,23.80
2023-05-04T06:15:10.258Z,23.80
2023-05-04T06:17:38.018Z,23.80
2023-05-04T06:20:06.929Z,23.70
2023-05-04T06:22:34.759Z,23.70
2023-05-04T06:25:05.274Z,23.70
2023-05-04T06:27:34.892Z,23.70
2023-05-04T06:30:02.696Z,23.70
2023-05-04T06:32:32.214Z,23.70
2023-05-04T06:35:00.210Z,23.70
2023-05-04T06:37:27.952Z,23.70
2023-05-04T06:39:55.714Z,23.70
2023-05-04T06:42:23.438Z,23.70
2023-05-04T06:44:52.639Z,23.70
2023-05-04T06:47:20.340Z,23.70
2023-05-04T06:49:49.426Z,23.70
2023-05-04T06:52:17.141Z,23.70
2023-05-04T06:54:44.801Z,23.70
2023-05-04T06:57:12.500Z,23.70
2023-05-04T06:59:40.200Z,23.70
2023-05-04T07:02:08.249Z,23.70
2023-05-04T07:04:35.934Z,23.70
2023-05-04T07:07:05.009Z,23.70
2023-05-04T07:09:33.019Z,23.70
2023-05-04T07:12:00.710Z,23.70
2023-05-04T07:14:28.377Z,23.70
2023-05-04T07:16:56.110Z,23.70
2023-05-04T07:19:23.998Z,23.70
2023-05-04T07:21:51.681Z,23.70
2023-05-04T07:24:20.701Z,23.70
2023-05-04T07:26:48.460Z,23.70
2023-05-04T07:29:16.182Z,23.80
2023-05-04T07:31:43.912Z,23.80
2023-05-04T07:34:11.785Z,23.80
2023-05-04T07:36:41.009Z,23.80
2023-05-04T07:39:10.370Z,23.80
2023-05-04T07:41:39.369Z,23.80
2023-05-04T07:44:08.665Z,23.80
2023-05-04T07:46:36.475Z,23.80
2023-05-04T07:49:04.447Z,23.80
2023-05-04T07:51:32.159Z,23.80
2023-05-04T07:53:59.920Z,23.80
2023-05-04T07:56:27.628Z,23.80
2023-05-04T07:58:56.640Z,23.80
2023-05-04T08:01:24.579Z,23.80
2023-05-04T08:03:52.528Z,23.80
2023-05-04T08:06:20.321Z,23.80
2023-05-04T08:08:51.423Z,23.80
2023-05-04T08:11:21.255Z,23.80
2023-05-04T08:13:50.465Z,23.80
2023-05-04T08:16:19.582Z,23.80
2023-05-04T08:18:47.299Z,23.80
2023-05-04T08:21:15.086Z,23.80
2023-05-04T08:23:42.857Z,23.80
2023-05-04T08:26:10.608Z,23.80
2023-05-04T08:28:40.018Z,23.80
2023-05-04T08:31:08.622Z,23.80
2023-05-04T08:33:37.623Z,23.80
2023-05-04T08:36:06.210Z,23.90
2023-05-04T08:38:34.130Z,23.90
2023-05-04T08:41:03.734Z,23.90
2023-05-04T08:43:32.016Z,23.90
2023-05-04T08:45:59.872Z,23.90
2023-05-04T08:48:27.720Z,23.90
2023-05-04T08:50:58.540Z,23.90
2023-05-04T08:53:27.626Z,23.90
2023-05-04T08:55:56.875Z,23.90
2023-05-04T08:58:25.931Z,23.90
2023-05-04T09:00:54.016Z,23.90
2023-05-04T09:03:22.277Z,23.90
2023-05-04T09:05:52.438Z,23.90
2023-05-04T09:08:21.820Z,23.90
2023-05-04T09:10:49.582Z,23.90
2023-05-04T09:13:17.831Z,23.90
2023-05-04T09:15:55.169Z,23.90
2023-05-04T09:18:23.970Z,23.90
2023-05-04T09:20:51.685Z,23.90
2023-05-04T09:23:22.297Z,23.90
2023-05-04T09:25:51.762Z,23.90
2023-05-04T09:28:22.751Z,23.90
2023-05-04T09:30:50.475Z,23.90
2023-05-04T09:33:25.966Z,23.90
2023-05-04T09:35:53.675Z,23.90
2023-05-04T09:38:29.460Z,23.90
2023-05-04T09:40:57.385Z,23.90
2023-05-04T09:43:25.282Z,23.90
2023-05-04T09:45:53.212Z,23.90
2023-05-04T09:48:25.534Z,23.90
2023-05-04T09:50:54.762Z,23.90
2023-05-04T09:53:24.906Z,23.90
2023-05-04T09:56:05.744Z,23.90
2023-05-04T09:58:35.703Z,23.90
2023-05-04T10:01:03.843Z,23.90
2023-05-04T10:03:32.411Z,23.90
2023-05-04T10:06:01.051Z,23.90
2023-05-04T10:08:29.072Z,23.90
2023-05-04T10:10:58.323Z,23.90
2023-05-04T10:13:26.743Z,23.90
2023-05-04T10:16:06.634Z,23.90
2023-05-04T10:18:49.128Z,23.90
2023-05-04T10:21:29.475Z,23.90
2023-05-04T10:24:24.515Z,23.90
2023-05-04T10:27:03.391Z,24.00
2023-05-04T10:29:33.176Z,23.90
2023-05-04T10:32:01.497Z,23.90
2023-05-04T10:34:31.478Z,24.00
2023-05-04T10:37:00.439Z,23.90
2023-05-04T10:39:35.229Z,24.00
2023-05-04T10:42:06.169Z,24.00
2023-05-04T10:44:37.260Z,24.00
2023-05-04T10:47:07.091Z,24.00
2023-05-04T10:49:36.528Z,24.00
2023-05-04T10:52:12.524Z,24.00
2023-05-04T10:54:41.599Z,24.00
2023-05-04T10:57:12.528Z,24.00
2023-05-04T10:59:41.196Z,24.00
2023-05-04T11:02:09.731Z,24.00
2023-05-04T11:04:38.399Z,24.00
2023-05-04T11:07:08.433Z,24.00
2023-05-04T11:09:38.243Z,24.00
2023-05-04T11:12:07.117Z,24.00
2023-05-04T11:14:37.747Z,24.00
2023-05-04T11:17:20.210Z,24.00
2023-05-04T11:19:55.928Z,24.00
2023-05-04T11:22:23.860Z,24.00
2023-05-04T11:24:51.790Z,24.00
2023-05-04T11:27:23.995Z,24.00
2023-05-04T11:29:57.322Z,24.00
2023-05-04T11:32:35.647Z,24.10
2023-05-04T11:35:04.210Z,24.10
2023-05-04T11:37:38.213Z,24.10
2023-05-04T11:40:10.693Z,24.10
2023-05-04T11:42:39.785Z,24.10
2023-05-04T11:45:13.393Z,24.10
2023-05-04T11:47:41.691Z,24.10
2023-05-04T11:50:11.650Z,24.10
2023-05-04T11:52:40.763Z,24.10
2023-05-04T11:55:10.171Z,24.10
2023-05-04T11:57:38.469Z,24.10
2023-05-04T12:00:07.859Z,24.10
2023-05-04T12:02:37.314Z,24.10
2023-05-04T12:05:13.197Z,24.20
2023-05-04T12:07:41.282Z,24.20
2023-05-04T12:10:09.705Z,24.20
2023-05-04T12:12:37.517Z,24.20
2023-05-04T12:15:05.996Z,24.20
2023-05-04T12:17:45.292Z,24.20
2023-05-04T12:20:24.012Z,24.20
2023-05-04T12:22:51.923Z,24.20
2023-05-04T12:25:19.878Z,24.20
2023-05-04T12:27:47.647Z,24.20
2023-05-04T12:30:15.699Z,24.20
2023-05-04T12:32:45.783Z,24.20
2023-05-04T12:35:13.603Z,24.20
2023-05-04T12:37:42.063Z,24.20
2023-05-04T12:40:27.346Z,24.20
2023-05-04T12:42:56.554Z,24.30
2023-05-04T12:45:24.293Z,24.30
2023-05-04T12:47:53.482Z,24.30
2023-05-04T12:50:21.352Z,24.30
2023-05-04T12:52:49.214Z,24.30
2023-05-04T12:55:17.402Z,24.30
2023-05-04T12:57:45.600Z,24.30
2023-05-04T13:00:15.218Z,24.30
2023-05-04T13:02:42.986Z,24.30
2023-05-04T13:05:12.953Z,24.30
2023-05-04T13:07:40.666Z,24.30
2023-05-04T13:10:09.149Z,24.40
2023-05-04T13:12:37.814Z,24.40
2023-05-04T13:15:07.416Z,24.40
2023-05-04T13:17:35.562Z,24.40
2023-05-04T13:20:06.079Z,24.40
2023-05-04T13:22:35.650Z,24.40
2023-05-04T13:25:03.484Z,24.40
2023-05-04T13:27:32.608Z,24.40
2023-05-04T13:30:02.916Z,24.40
2023-05-04T13:32:31.991Z,24.40
2023-05-04T13:34:59.767Z,24.40
2023-05-04T13:37:27.769Z,24.40
2023-05-04T13:39:57.206Z,24.50
2023-05-04T13:42:25.030Z,24.40
2023-05-04T13:44:52.890Z,24.50
2023-05-04T13:47:21.059Z,24.50
2023-05-04T13:49:49.114Z,24.50
2023-05-04T13:52:17.009Z,24.50
2023-05-04T13:54:44.764Z,24.60
2023-05-04T13:57:13.856Z,24.50
2023-05-04T13:59:48.782Z,24.60
2023-05-04T14:02:26.622Z,24.60
2023-05-04T14:04:54.608Z,24.60
2023-05-04T14:07:22.333Z,24.60
2023-05-04T14:09:50.434Z,24.60
2023-05-04T14:12:20.443Z,24.70
2023-05-04T14:14:48.474Z,24.70
2023-05-04T14:17:16.191Z,24.70
2023-05-04T14:19:44.781Z,24.70
2023-05-04T14:22:12.584Z,24.70
2023-05-04T14:24:40.427Z,24.80
2023-05-04T14:27:08.174Z,24.70
2023-05-04T14:29:37.413Z,24.80
2023-05-04T14:32:07.017Z,24.80
2023-05-04T14:34:34.859Z,24.80
2023-05-04T14:37:02.605Z,24.80
2023-05-04T14:39:30.353Z,24.80
2023-05-04T14:41:58.095Z,24.80
2023-05-04T14:44:27.815Z,24.80
2023-05-04T14:46:57.006Z,24.80
2023-05-04T14:49:36.446Z,24.80
2023-05-04T14:52:05.559Z,24.80
2023-05-04T14:54:33.304Z,24.90
2023-05-04T14:57:01.031Z,24.90
2023-05-04T14:59:28.758Z,24.90
2023-05-04T15:01:57.963Z,24.90
2023-05-04T15:04:25.680Z,24.90
2023-05-04T15:06:53.398Z,24.90
2023-05-04T15:09:21.113Z,24.90
2023-05-04T15:11:48.984Z,24.90
2023-05-04T15:14:16.742Z,24.90
2023-05-04T15:16:44.481Z,25.00
2023-05-04T15:19:13.560Z,24.90
2023-05-04T15:21:41.576Z,25.00
2023-05-04T15:24:09.473Z,25.00
2023-05-04T15:26:37.216Z,25.00
2023-05-04T15:29:06.465Z,25.00
2023-05-04T15:31:34.191Z,25.00
2023-05-04T15:34:02.583Z,25.00
2023-05-04T15:36:31.743Z,25.00
2023-05-04T15:38:59.549Z,25.00
2023-05-04T15:41:27.700Z,25.00
2023-05-04T15:43:55.437Z,25.10
2023-05-04T15:46:23.241Z,25.10
2023-05-04T15:48:51.006Z,25.10
2023-05-04T15:51:18.806Z,25.20
2023-05-04T15:53:48.081Z,25.20
2023-05-04T15:56:16.250Z,25.20
2023-05-04T15:58:45.098Z,25.20
2023-05-04T16:01:14.341Z,25.30
2023-05-04T16:03:42.889Z,25.30
2023-05-04T16:06:11.647Z,25.30
2023-05-04T16:08:39.422Z,25.30
2023-05-04T16:11:08.627Z,25.40
2023-05-04T16:13:36.572Z,25.40
2023-05-04T16:16:05.142Z,25.40
2023-05-04T16:18:32.897Z,25.50
2023-05-04T16:21:00.643Z,25.50
2023-05-04T16:23:28.877Z,25.50
2023-05-04T16:25:56.638Z,25.50
2023-05-04T16:28:25.731Z,25.50
2023-05-04T16:30:53.519Z,25.50
2023-05-04T16:33:21.316Z,25.50
2023-05-04T16:35:49.093Z,25.50
2023-05-04T16:38:19.296Z,25.40
2023-05-04T16:40:47.280Z,25.20
2023-05-04T16:43:15.011Z,25.10
2023-05-04T16:45:44.077Z,25.00
2023-05-04T16:48:11.829Z,24.90
2023-05-04T16:50:39.589Z,24.80
2023-05-04T16:53:07.290Z,24.80
2023-05-04T16:55:36.602Z,24.70
2023-05-04T16:58:04.321Z,24.70
2023-05-04T17:00:32.398Z,24.70
2023-05-04T17:03:01.560Z,24.70
2023-05-04T17:05:29.373Z,24.70
2023-05-04T17:07:57.092Z,24.70
2023-05-04T17:10:25.603Z,24.70
2023-05-04T17:12:54.126Z,24.70
2023-05-04T17:15:21.958Z,24.60
2023-05-04T17:17:49.702Z,24.70
2023-05-04T17:20:18.864Z,24.60
2023-05-04T17:22:46.772Z,24.60
2023-05-04T17:25:14.905Z,24.60
2023-05-04T17:27:43.696Z,24.60
2023-05-04T17:30:12.686Z,24.50
2023-05-04T17:32:40.506Z,24.40
2023-05-04T17:35:23.422Z,24.40
2023-05-04T17:37:57.019Z,24.40
2023-05-04T17:40:25.748Z,24.30
2023-05-04T17:42:53.704Z,24.30
2023-05-04T17:45:21.915Z,24.30
2023-05-04T17:47:51.832Z,24.30
2023-05-04T17:50:20.116Z,24.20
2023-05-04T17:52:53.797Z,24.20
2023-05-04T17:55:23.394Z,24.10
2023-05-04T17:57:52.804Z,24.10
2023-05-04T18:00:21.647Z,24.10
2023-05-04T18:02:49.822Z,24.00
2023-05-04T18:05:17.940Z,24.00
2023-05-04T18:07:46.127Z,24.00
2023-05-04T18:10:15.322Z,23.90
2023-05-04T18:12:43.263Z,24.00
2023-05-04T18:15:11.895Z,24.00
2023-05-04T18:17:39.895Z,24.10
2023-05-04T18:20:10.212Z,24.20
2023-05-04T18:22:38.466Z,24.20
2023-05-04T18:25:07.332Z,24.30
2023-05-04T18:27:36.869Z,24.30
2023-05-04T18:30:06.477Z,24.40
2023-05-04T18:32:34.559Z,24.40
2023-05-04T18:35:02.821Z,24.40
2023-05-04T18:37:31.630Z,24.40
2023-05-04T18:40:00.047Z,24.50
2023-05-04T18:42:27.980Z,24.50
2023-05-04T18:44:57.150Z,24.50
2023-05-04T18:47:25.426Z,24.50
2023-05-04T18:49:56.341Z,24.60
2023-05-04T18:52:24.240Z,24.60
2023-05-04T18:54:52.075Z,24.60
2023-05-04T18:57:19.957Z,24.50
2023-05-04T18:59:47.812Z,24.60
2023-05-04T19:02:17.331Z,24.60
2023-05-04T19:04:46.765Z,24.60
2023-05-04T19:07:15.215Z,24.60
2023-05-04T19:09:43.013Z,24.60
2023-05-04T19:12:10.838Z,24.60
2023-05-04T19:14:38.579Z,24.60
2023-05-04T19:17:06.674Z,24.60
2023-05-04T19:19:37.897Z,24.60
2023-05-04T19:22:06.691Z,24.60
2023-05-04T19:24:36.201Z,24.60
2023-05-04T19:27:04.094Z,24.60
2023-05-04T19:29:31.921Z,24.60
2023-05-04T19:32:03.399Z,24.60
2023-05-04T19:34:37.927Z,24.60
2023-05-04T19:37:05.824Z,24.50
2023-05-04T19:39:33.572Z,24.60
2023-05-04T19:42:01.965Z,24.60
2023-05-04T19:44:29.757Z,24.60
2023-05-04T19:46:57.568Z,24.50
2023-05-04T19:49:25.829Z,24.60
2023-05-04T19:51:54.923Z,24.60
2023-05-04T19:54:22.685Z,24.60
2023-05-04T19:56:50.479Z,24.50
2023-05-04T19:59:18.264Z,24.50
2023-05-04T20:01:46.161Z,24.60
2023-05-04T20:04:13.971Z,24.60
2023-05-04T20:06:41.916Z,24.60
2023-05-04T20:09:11.446Z,24.50
2023-05-04T20:11:39.325Z,24.50
2023-05-04T20:14:07.232Z,24.60
2023-05-04T20:16:36.101Z,24.60
2023-05-04T20:19:04.221Z,24.60
2023-05-04T20:21:32.166Z,24.50
2023-05-04T20:23:59.943Z,24.60
2023-05-04T20:26:29.062Z,24.60
2023-05-04T20:28:56.865Z,24.50
2023-05-04T20:31:24.667Z,24.50
2023-05-04T20:33:52.513Z,24.50
2023-05-04T20:36:20.305Z,24.50
2023-05-04T20:38:48.089Z,24.50
2023-05-04T20:41:15.932Z,24.50
2023-05-04T20:43:45.033Z,24.50
2023-05-04T20:46:12.815Z,24.50
2023-05-04T20:48:40.741Z,24.50
2023-05-04T20:51:14.815Z,24.50
2023-05-04T20:53:43.348Z,24.50
2023-05-04T20:56:11.394Z,24.50
2023-05-04T20:58:39.182Z,24.50
2023-05-04T21:01:08.386Z,24.50
2023-05-04T21:03:36.594Z,24.50
2023-05-04T21:06:04.978Z,24.50
2023-05-04T21:08:32.744Z,24.50
2023-05-04T21:11:01.051Z,24.50
2023-05-04T21:13:28.883Z,24.40
2023-05-04T21:15:56.720Z,24.40
2023-05-04T21:18:26.053Z,24.40
2023-05-04T21:20:54.058Z,24.40
2023-05-04T21:23:21.822Z,24.40
2023-05-04T21:25:49.543Z,24.40
2023-05-04T21:28:17.353Z,24.40
2023-05-04T21:30:45.095Z,24.40
2023-05-04T21:33:12.884Z,24.40
2023-05-04T21:35:41.986Z,24.40
2023-05-04T21:38:09.772Z,24.40
2023-05-04T21:40:37.509Z,24.40
2023-05-04T21:43:05.493Z,24.40
2023-05-04T21:45:33.535Z,24.40
2023-05-04T21:48:02.344Z,24.40
2023-05-04T21:50:30.892Z,24.40
2023-05-04T21:53:00.068Z,24.40
2023-05-04T21:55:30.272Z,24.40
2023-05-04T21:57:58.254Z,24.40
2023-05-04T22:00:26.432Z,24.40
2023-05-04T22:02:55.322Z,24.40
2023-05-04T22:05:23.340Z,24.40
2023-05-04T22:07:51.288Z,24.40
2023-05-04T22:10:20.548Z,24.40
2023-05-04T22:12:48.709Z,24.40
2023-05-04T22:15:16.648Z,24.40
2023-05-04T22:17:44.438Z,24.40
2023-05-04T22:20:13.540Z,24.40
2023-05-04T22:22:41.296Z,24.40
2023-05-04T22:25:09.722Z,24.40
2023-05-04T22:27:38.834Z,24.40
2023-05-04T22:30:08.515Z,24.40
2023-05-04T22:32:36.774Z,24.40
2023-05-04T22:35:05.174Z,24.40
2023-05-04T22:37:32.919Z,24.40
2023-05-04T22:40:00.826Z,24.40
2023-05-04T22:42:28.935Z,24.40
2023-05-04T22:44:58.150Z,24.40
2023-05-04T22:47:26.012Z,24.40
2023-05-04T22:49:55.091Z,24.40
2023-05-04T22:52:23.233Z,24.40
2023-05-04T22:54:51.142Z,24.30
2023-05-04T22:57:19.448Z,24.40
2023-05-04T22:59:47.268Z,24.40
2023-05-04T23:02:16.736Z,24.40
2023-05-04T23:04:44.754Z,24.40
2023-05-04T23:07:12.801Z,24.30
2023-05-04T23:09:43.089Z,24.30
2023-05-04T23:12:10.971Z,24.30
2023-05-04T23:14:38.724Z,24.40
2023-05-04T23:17:06.518Z,24.30
2023-05-04T23:19:35.718Z,24.30
2023-05-04T23:22:03.539Z,24.30
2023-05-04T23:24:31.308Z,24.30
2023-05-04T23:26:59.634Z,24.30
2023-05-04T23:29:27.386Z,24.30
2023-05-04T23:31:56.004Z,24.30
2023-05-04T23:34:23.952Z,24.30
2023-05-04T23:36:54.134Z,24.30
2023-05-04T23:39:21.946Z,24.30
2023-05-04T23:41:50.357Z,24.30
2023-05-04T23:44:18.156Z,24.30
2023-05-04T23:46:45.930Z,24.30
2023-05-04T23:49:13.691Z,24.30
2023-05-04T23:51:41.449Z,24.30
2023-05-04T23:54:10.622Z,24.30
2023-05-04T23:56:38.424Z,24.30
2023-05-04T23:59:06.509Z,24.30
